• Join FlightAware (Why Join?)
  • Login
  • US Flag 
11:15AM EST


 

Airport Tracker/Info


-or-


 

Live Flight TrackerFlight Track Log ✈ RAX308 ✈ 22-Aug-2013 ✈ KEKY - KGYH

Flight Track Log - Related Links

Times and Time Zones

All times are in EDT time to prevent confusion due to time zone crossing. See the RAX308 flight status page for this flight to view local times or setup timezone preferences in your user account.

Time Position Orientation Groundspeed Altitude Reporting Facility
EDT Latitude Longitude Course Direction KTS MPH feet Rate Location/Type
06:42PM 33.3217 -86.8556 105° East 265 305 4,100  Level Atlanta Center
06:43PM 33.3008 -86.7628 105° East 225 259 8,400 3,240 Climbing Atlanta Center
06:44PM 33.2842 -86.6581 101° East 249 287 12,400 2,940 Climbing Atlanta Center
06:45PM 33.2839 -86.5783 90° East 236 272 15,200 2,640 Climbing Atlanta Center
06:46PM 33.3042 -86.5094 71° East 236 272 17,700 2,160 Climbing Atlanta Center
06:47PM 33.3697 -86.4592 33° Northeast 236 272 19,600 1,920 Climbing Atlanta Center
06:48PM 33.4586 -86.4017 28° Northeast 281 323 21,600 1,860 Climbing Atlanta Center
06:49PM 33.5369 -86.3392 34° Northeast 300 345 23,400 1,800 Climbing Atlanta Center
06:50PM 33.5578 -86.2250 78° East 318 366 25,200 1,200 Climbing Atlanta Center
06:51PM 33.5578 -86.0978 90° East 350 403 25,800 840 Climbing Atlanta Center
06:52PM 33.5581 -85.9633 90° East 372 428 26,900 1,020 Climbing Atlanta Center
06:53PM 33.5664 -85.8264 86° East 392 451 27,900 960 Climbing Atlanta Center
06:54PM 33.5725 -85.6869 87° East 414 476 28,900 540 Climbing Atlanta Center
06:55PM 33.5828 -85.5400 85° East 423 487 29,000 -300 Climbing Atlanta Center
06:56PM 33.5844 -85.3878 89° East 447 514 28,400 -1,200 Descending Atlanta Center
06:57PM 33.5922 -85.2308 87° East 465 535 26,600 -1,200 Descending Atlanta Center
06:58PM 33.6000 -85.0789 86° East 460 529 26,000 -600 Descending Atlanta Center
06:59PM 33.6114 -84.9367 84° East 433 498 25,500 -600 Descending Atlanta Center
07:00PM 33.6269 -84.7997 82° East 422 486 24,900 -660 Descending Atlanta Center
07:01PM 33.6403 -84.6725 83° East 422 486 24,200 -480 Descending Atlanta Center
07:02PM 33.6533 -84.5378 83° East 416 479 24,000 -120 Descending Atlanta Center
07:03PM 33.6644 -84.3981 85° East 416 479 24,000 -180 Level Atlanta Center
07:04PM 33.6856 -84.2686 79° East 405 466 23,700 -480 Descending Atlanta Center
07:05PM 33.7275 -84.1136 72° East 415 478 23,100 -660 Descending Atlanta Center
07:06PM 33.7650 -83.9814 71° East 421 484 22,400 -840 Descending Atlanta Center
07:07PM 33.8025 -83.8539 70° East 415 478 21,500 -720 Descending Atlanta Center
07:08PM 33.8397 -83.7261 71° East 403 464 21,000 -300 Descending Atlanta Center
07:09PM 33.8875 -83.6258 60° Northeast 392 451 21,000  Level Atlanta Center
07:10PM 33.9600 -83.5228 50° Northeast 386 444 21,000 -180 Level Atlanta Center
07:11PM 34.0286 -83.4222 51° Northeast 386 444 20,700 -780 Descending Atlanta Center
07:12PM 34.1011 -83.3214 49° Northeast 386 444 19,500 -1,380 Descending Atlanta Center
07:13PM 34.1692 -83.2203 51° Northeast 386 444 18,000 -1,380 Descending Atlanta Center
07:14PM 34.2375 -83.1242 49° Northeast 386 444 16,800 -1,200 Descending Atlanta Center
07:15PM 34.2994 -83.0306 51° Northeast 369 425 15,700 -1,500 Descending Atlanta Center
07:16PM 34.3675 -82.9367 49° Northeast 358 412 13,800 -2,280 Descending Atlanta Center
07:17PM 34.4375 -82.8347 50° Northeast 358 412 11,200 -1,680 Descending Atlanta Center
07:18PM 34.5014 -82.7533 46° Northeast 344 396 10,500 -1,020 Descending Atlanta Center
07:19PM 34.5403 -82.6847 55° Northeast 310 357 9,200 -1,500 Descending Atlanta Center
07:20PM 34.5831 -82.6083 56° Northeast 284 327 7,600 -1,800 Descending Atlanta Center
07:21PM 34.6261 -82.5394 53° Northeast 267 307 5,700 -2,160 Descending Atlanta Center
07:22PM 34.6733 -82.4678 51° Northeast 267 307 3,300 -1,620 Descending Atlanta Center
07:23PM 34.7206 -82.4114 44° Northeast 254 292 2,500 -1,140 Descending Atlanta Center
07:24PM 34.7697 -82.3472 47° Northeast 238 274 1,100 -1,440 Descending Atlanta Center
07:27PM 34.7500 -82.3667 39° Northeast  Level FlightAware Approximate
07:34PM 34.7583 -82.3764 39° Northeast  Level Estimated
07:35PM 34.7583 -82.3764 39° Northeast  Level Estimated